sensor_id;sensor_type;location;lat;lon;timestamp;pressure;altitude;pressure_sealevel;temperature;humidity
70200;BME280;57587;55.688;37.600;2022-12-18T00:00:00;98982.69;;;-2.25;68.80
70200;BME280;57587;55.688;37.600;2022-12-18T00:07:03;98976.16;;;-2.08;68.24
70200;BME280;57587;55.688;37.600;2022-12-18T00:10:54;98958.28;;;-2.14;69.28
70200;BME280;57587;55.688;37.600;2022-12-18T00:13:51;98955.06;;;-2.18;68.81
70200;BME280;57587;55.688;37.600;2022-12-18T00:18:13;98959.59;;;-2.09;68.59
70200;BME280;57587;55.688;37.600;2022-12-18T00:22:15;98949.00;;;-2.07;67.73
70200;BME280;57587;55.688;37.600;2022-12-18T00:30:21;98948.75;;;-2.15;68.21
70200;BME280;57587;55.688;37.600;2022-12-18T00:52:12;98906.81;;;-2.26;68.65
70200;BME280;57587;55.688;37.600;2022-12-18T01:00:20;98894.66;;;-2.16;67.91
70200;BME280;57587;55.688;37.600;2022-12-18T01:05:13;98881.31;;;-2.13;67.21
70200;BME280;57587;55.688;37.600;2022-12-18T01:09:16;98869.63;;;-2.20;67.26
70200;BME280;57587;55.688;37.600;2022-12-18T01:27:45;98854.94;;;-1.89;66.33
70200;BME280;57587;55.688;37.600;2022-12-18T01:35:08;98866.16;;;-1.87;65.63
70200;BME280;57587;55.688;37.600;2022-12-18T01:39:54;98874.81;;;-1.75;66.11
70200;BME280;57587;55.688;37.600;2022-12-18T01:52:15;98860.50;;;-1.71;65.44
70200;BME280;57587;55.688;37.600;2022-12-18T02:23:46;98869.91;;;-1.69;64.35
70200;BME280;57587;55.688;37.600;2022-12-18T02:27:12;98837.72;;;-1.71;64.08
70200;BME280;57587;55.688;37.600;2022-12-18T02:30:40;98850.25;;;-1.74;64.15
70200;BME280;57587;55.688;37.600;2022-12-18T02:33:58;98842.28;;;-1.73;64.45
70200;BME280;57587;55.688;37.600;2022-12-18T02:40:14;98843.13;;;-1.72;64.23
70200;BME280;57587;55.688;37.600;2022-12-18T02:47:12;98830.75;;;-1.81;63.69
70200;BME280;57587;55.688;37.600;2022-12-18T02:50:40;98855.75;;;-1.77;64.15
70200;BME280;57587;55.688;37.600;2022-12-18T02:59:03;98854.81;;;-1.76;64.08
70200;BME280;57587;55.688;37.600;2022-12-18T03:02:04;98841.94;;;-1.79;63.76
70200;BME280;57587;55.688;37.600;2022-12-18T03:04:49;98843.34;;;-1.75;64.67
70200;BME280;57587;55.688;37.600;2022-12-18T03:07:28;98830.25;;;-1.75;64.11
70200;BME280;57587;55.688;37.600;2022-12-18T03:10:00;98818.09;;;-1.76;64.24
70200;BME280;57587;55.688;37.600;2022-12-18T03:12:35;98821.78;;;-1.79;64.15
70200;BME280;57587;55.688;37.600;2022-12-18T03:15:14;98833.47;;;-1.83;64.64
70200;BME280;57587;55.688;37.600;2022-12-18T03:17:50;98843.97;;;-1.83;64.66
70200;BME280;57587;55.688;37.600;2022-12-18T03:20:21;98847.19;;;-1.79;63.89
70200;BME280;57587;55.688;37.600;2022-12-18T03:22:52;98841.69;;;-1.76;64.05
70200;BME280;57587;55.688;37.600;2022-12-18T03:25:21;98856.00;;;-1.80;64.24
70200;BME280;57587;55.688;37.600;2022-12-18T03:27:55;98861.72;;;-1.87;64.17
70200;BME280;57587;55.688;37.600;2022-12-18T03:30:26;98851.25;;;-1.87;63.86
70200;BME280;57587;55.688;37.600;2022-12-18T03:33:15;98843.28;;;-1.85;64.17
70200;BME280;57587;55.688;37.600;2022-12-18T03:35:48;98832.19;;;-1.89;63.55
70200;BME280;57587;55.688;37.600;2022-12-18T03:38:17;98850.06;;;-1.82;63.70
70200;BME280;57587;55.688;37.600;2022-12-18T03:41:01;98855.31;;;-1.82;63.55
70200;BME280;57587;55.688;37.600;2022-12-18T03:46:33;98830.50;;;-1.90;63.53
70200;BME280;57587;55.688;37.600;2022-12-18T03:49:21;98844.09;;;-1.84;62.77
70200;BME280;57587;55.688;37.600;2022-12-18T03:52:04;98842.44;;;-1.86;63.62
70200;BME280;57587;55.688;37.600;2022-12-18T03:54:33;98840.41;;;-1.93;63.89
70200;BME280;57587;55.688;37.600;2022-12-18T03:57:18;98843.19;;;-1.95;63.33
70200;BME280;57587;55.688;37.600;2022-12-18T04:00:02;98852.69;;;-1.94;63.51
70200;BME280;57587;55.688;37.600;2022-12-18T04:02:43;98848.66;;;-1.98;63.38
70200;BME280;57587;55.688;37.600;2022-12-18T04:05:17;98845.78;;;-1.95;64.05
70200;BME280;57587;55.688;37.600;2022-12-18T04:07:48;98844.75;;;-2.03;63.32
70200;BME280;57587;55.688;37.600;2022-12-18T04:10:17;98829.84;;;-2.03;63.27
70200;BME280;57587;55.688;37.600;2022-12-18T04:12:45;98841.16;;;-2.02;63.37
70200;BME280;57587;55.688;37.600;2022-12-18T04:15:14;98864.88;;;-2.04;63.43
70200;BME280;57587;55.688;37.600;2022-12-18T04:17:49;98879.16;;;-1.97;62.92
70200;BME280;57587;55.688;37.600;2022-12-18T04:20:20;98882.25;;;-2.03;62.61
70200;BME280;57587;55.688;37.600;2022-12-18T04:22:48;98881.19;;;-2.00;62.46
70200;BME280;57587;55.688;37.600;2022-12-18T04:25:18;98885.47;;;-1.99;62.75
70200;BME280;57587;55.688;37.600;2022-12-18T04:27:56;98887.38;;;-1.90;63.15
70200;BME280;57587;55.688;37.600;2022-12-18T04:30:23;98891.69;;;-2.00;63.55
70200;BME280;57587;55.688;37.600;2022-12-18T04:32:51;98886.28;;;-1.99;63.64
70200;BME280;57587;55.688;37.600;2022-12-18T04:35:19;98899.66;;;-2.02;63.59
70200;BME280;57587;55.688;37.600;2022-12-18T04:37:46;98908.97;;;-2.09;63.83
70200;BME280;57587;55.688;37.600;2022-12-18T04:40:14;98910.13;;;-2.02;63.85
70200;BME280;57587;55.688;37.600;2022-12-18T04:42:45;98913.47;;;-2.00;64.17
70200;BME280;57587;55.688;37.600;2022-12-18T04:45:12;98915.97;;;-1.98;64.43
70200;BME280;57587;55.688;37.600;2022-12-18T04:47:39;98933.38;;;-1.97;64.31
70200;BME280;57587;55.688;37.600;2022-12-18T04:50:06;98936.59;;;-1.94;63.82
70200;BME280;57587;55.688;37.600;2022-12-18T04:52:33;98938.16;;;-1.91;63.59
70200;BME280;57587;55.688;37.600;2022-12-18T04:55:01;98939.22;;;-1.94;63.74
70200;BME280;57587;55.688;37.600;2022-12-18T04:57:29;98932.56;;;-1.98;63.48
70200;BME280;57587;55.688;37.600;2022-12-18T04:59:56;98942.81;;;-1.95;64.79
70200;BME280;57587;55.688;37.600;2022-12-18T05:02:23;98933.97;;;-1.94;63.92
70200;BME280;57587;55.688;37.600;2022-12-18T05:04:50;98928.72;;;-1.94;63.93
70200;BME280;57587;55.688;37.600;2022-12-18T05:07:17;98922.06;;;-1.98;64.07
70200;BME280;57587;55.688;37.600;2022-12-18T05:09:44;98931.59;;;-1.97;63.75
70200;BME280;57587;55.688;37.600;2022-12-18T05:12:12;98932.78;;;-2.01;63.38
70200;BME280;57587;55.688;37.600;2022-12-18T05:14:39;98939.09;;;-2.03;63.09
70200;BME280;57587;55.688;37.600;2022-12-18T05:17:06;98944.44;;;-2.05;63.11
70200;BME280;57587;55.688;37.600;2022-12-18T05:19:33;98946.47;;;-2.09;63.03
70200;BME280;57587;55.688;37.600;2022-12-18T05:22:00;98946.38;;;-2.07;63.46
70200;BME280;57587;55.688;37.600;2022-12-18T05:24:28;98943.03;;;-2.09;63.41
70200;BME280;57587;55.688;37.600;2022-12-18T05:26:55;98947.69;;;-2.13;62.64
70200;BME280;57587;55.688;37.600;2022-12-18T05:29:22;98962.44;;;-2.12;62.73
70200;BME280;57587;55.688;37.600;2022-12-18T05:31:52;98962.09;;;-2.18;62.87
70200;BME280;57587;55.688;37.600;2022-12-18T05:34:19;98972.81;;;-2.21;63.74
70200;BME280;57587;55.688;37.600;2022-12-18T05:36:46;98977.59;;;-2.15;63.27
70200;BME280;57587;55.688;37.600;2022-12-18T05:39:13;98982.34;;;-2.09;63.79
70200;BME280;57587;55.688;37.600;2022-12-18T05:41:40;98985.81;;;-2.20;62.57
70200;BME280;57587;55.688;37.600;2022-12-18T05:44:08;98989.03;;;-2.16;63.06
70200;BME280;57587;55.688;37.600;2022-12-18T05:46:36;98997.47;;;-2.13;62.71
70200;BME280;57587;55.688;37.600;2022-12-18T05:49:03;99002.50;;;-2.10;63.39
70200;BME280;57587;55.688;37.600;2022-12-18T05:51:30;99004.16;;;-2.09;63.09
70200;BME280;57587;55.688;37.600;2022-12-18T05:53:58;99003.56;;;-2.12;62.45
70200;BME280;57587;55.688;37.600;2022-12-18T05:56:25;99008.06;;;-2.14;62.94
70200;BME280;57587;55.688;37.600;2022-12-18T05:58:53;99019.28;;;-2.12;62.83
70200;BME280;57587;55.688;37.600;2022-12-18T06:01:23;99021.53;;;-2.08;62.97
70200;BME280;57587;55.688;37.600;2022-12-18T06:03:51;99024.44;;;-2.11;62.94
70200;BME280;57587;55.688;37.600;2022-12-18T06:06:24;99021.41;;;-2.17;62.95
70200;BME280;57587;55.688;37.600;2022-12-18T06:08:52;99028.34;;;-2.16;63.14
70200;BME280;57587;55.688;37.600;2022-12-18T06:11:22;99033.34;;;-2.13;63.36
70200;BME280;57587;55.688;37.600;2022-12-18T06:13:51;99046.31;;;-2.12;63.06
70200;BME280;57587;55.688;37.600;2022-12-18T06:16:24;99045.63;;;-2.02;62.85
70200;BME280;57587;55.688;37.600;2022-12-18T06:18:51;99049.91;;;-2.01;62.83
70200;BME280;57587;55.688;37.600;2022-12-18T06:21:18;99045.63;;;-2.02;62.07
70200;BME280;57587;55.688;37.600;2022-12-18T06:23:45;99051.81;;;-1.92;62.42
70200;BME280;57587;55.688;37.600;2022-12-18T06:26:13;99048.97;;;-2.00;61.86
70200;BME280;57587;55.688;37.600;2022-12-18T06:28:40;99044.19;;;-2.06;62.17
70200;BME280;57587;55.688;37.600;2022-12-18T06:31:08;99058.81;;;-2.15;63.01
70200;BME280;57587;55.688;37.600;2022-12-18T06:33:36;99066.47;;;-2.12;62.24
70200;BME280;57587;55.688;37.600;2022-12-18T06:36:05;99071.47;;;-2.09;62.84
70200;BME280;57587;55.688;37.600;2022-12-18T06:38:33;99070.19;;;-2.03;63.50
70200;BME280;57587;55.688;37.600;2022-12-18T06:41:13;99076.75;;;-1.98;62.86
70200;BME280;57587;55.688;37.600;2022-12-18T06:43:40;99091.06;;;-1.91;61.60
70200;BME280;57587;55.688;37.600;2022-12-18T06:46:09;99096.31;;;-1.91;61.92
70200;BME280;57587;55.688;37.600;2022-12-18T06:48:36;99101.53;;;-1.91;60.79
70200;BME280;57587;55.688;37.600;2022-12-18T06:51:03;99115.16;;;-1.86;62.00
70200;BME280;57587;55.688;37.600;2022-12-18T06:53:32;99123.25;;;-1.77;61.08
70200;BME280;57587;55.688;37.600;2022-12-18T06:56:03;99127.81;;;-1.68;60.25
70200;BME280;57587;55.688;37.600;2022-12-18T06:58:40;99127.34;;;-1.62;60.44
70200;BME280;57587;55.688;37.600;2022-12-18T07:01:09;99134.28;;;-1.61;59.66
70200;BME280;57587;55.688;37.600;2022-12-18T07:03:41;99137.81;;;-1.62;59.97
70200;BME280;57587;55.688;37.600;2022-12-18T07:06:18;99139.84;;;-1.66;59.65
70200;BME280;57587;55.688;37.600;2022-12-18T07:08:46;99127.56;;;-1.65;59.62
70200;BME280;57587;55.688;37.600;2022-12-18T07:11:14;99133.88;;;-1.68;58.43
70200;BME280;57587;55.688;37.600;2022-12-18T07:13:41;99132.13;;;-1.67;59.60
70200;BME280;57587;55.688;37.600;2022-12-18T07:16:11;99140.69;;;-1.65;58.36
70200;BME280;57587;55.688;37.600;2022-12-18T07:18:49;99139.53;;;-1.61;59.17
70200;BME280;57587;55.688;37.600;2022-12-18T07:21:18;99146.66;;;-1.63;58.22
70200;BME280;57587;55.688;37.600;2022-12-18T07:23:46;99162.03;;;-1.70;58.50
70200;BME280;57587;55.688;37.600;2022-12-18T07:26:17;99167.38;;;-1.71;58.36
70200;BME280;57587;55.688;37.600;2022-12-18T07:28:45;99174.41;;;-1.72;58.26
70200;BME280;57587;55.688;37.600;2022-12-18T07:31:14;99180.72;;;-1.74;58.21
70200;BME280;57587;55.688;37.600;2022-12-18T07:33:42;99176.94;;;-1.70;57.62
70200;BME280;57587;55.688;37.600;2022-12-18T07:36:13;99190.53;;;-1.65;58.19
70200;BME280;57587;55.688;37.600;2022-12-18T07:38:40;99183.13;;;-1.71;57.38
70200;BME280;57587;55.688;37.600;2022-12-18T07:41:11;99188.94;;;-1.79;57.80
70200;BME280;57587;55.688;37.600;2022-12-18T07:43:39;99190.84;;;-1.81;58.12
70200;BME280;57587;55.688;37.600;2022-12-18T07:46:26;99184.53;;;-1.78;58.10
70200;BME280;57587;55.688;37.600;2022-12-18T07:48:53;99192.03;;;-1.74;57.81
70200;BME280;57587;55.688;37.600;2022-12-18T07:51:20;99197.19;;;-1.72;58.29
70200;BME280;57587;55.688;37.600;2022-12-18T07:53:47;99194.84;;;-1.64;58.05
70200;BME280;57587;55.688;37.600;2022-12-18T07:56:19;99197.94;;;-1.59;58.88
70200;BME280;57587;55.688;37.600;2022-12-18T07:58:57;99195.53;;;-1.62;57.68
70200;BME280;57587;55.688;37.600;2022-12-18T08:01:24;99195.53;;;-1.62;58.41
70200;BME280;57587;55.688;37.600;2022-12-18T08:03:53;99201.16;;;-1.55;57.46
70200;BME280;57587;55.688;37.600;2022-12-18T08:06:20;99207.81;;;-1.63;58.38
70200;BME280;57587;55.688;37.600;2022-12-18T08:08:51;99211.75;;;-1.68;57.93
70200;BME280;57587;55.688;37.600;2022-12-18T08:11:19;99220.34;;;-1.66;58.08
70200;BME280;57587;55.688;37.600;2022-12-18T08:13:47;99227.63;;;-1.58;57.97
70200;BME280;57587;55.688;37.600;2022-12-18T08:16:15;99230.97;;;-1.56;58.03
70200;BME280;57587;55.688;37.600;2022-12-18T08:18:42;99243.03;;;-1.54;59.12
70200;BME280;57587;55.688;37.600;2022-12-18T08:21:10;99258.19;;;-1.57;56.83
70200;BME280;57587;55.688;37.600;2022-12-18T08:23:38;99258.19;;;-1.46;58.12
70200;BME280;57587;55.688;37.600;2022-12-18T08:26:10;99262.38;;;-1.44;57.79
70200;BME280;57587;55.688;37.600;2022-12-18T08:28:39;99272.59;;;-1.52;57.81
70200;BME280;57587;55.688;37.600;2022-12-18T08:31:07;99260.13;;;-1.48;58.22
70200;BME280;57587;55.688;37.600;2022-12-18T08:33:36;99269.97;;;-1.52;57.86
70200;BME280;57587;55.688;37.600;2022-12-18T08:36:05;99259.47;;;-1.52;57.54
70200;BME280;57587;55.688;37.600;2022-12-18T08:38:33;99262.09;;;-1.52;58.44
70200;BME280;57587;55.688;37.600;2022-12-18T08:41:01;99270.97;;;-1.42;58.35
70200;BME280;57587;55.688;37.600;2022-12-18T08:43:29;99270.63;;;-1.37;57.80
70200;BME280;57587;55.688;37.600;2022-12-18T08:46:15;99274.81;;;-1.34;58.53
70200;BME280;57587;55.688;37.600;2022-12-18T08:48:42;99281.25;;;-1.27;58.17
70200;BME280;57587;55.688;37.600;2022-12-18T08:51:10;99280.94;;;-1.23;57.25
70200;BME280;57587;55.688;37.600;2022-12-18T08:53:37;99281.16;;;-1.26;58.06
70200;BME280;57587;55.688;37.600;2022-12-18T08:56:05;99286.03;;;-1.21;58.10
70200;BME280;57587;55.688;37.600;2022-12-18T08:58:33;99287.50;;;-1.17;58.66
70200;BME280;57587;55.688;37.600;2022-12-18T09:01:34;99285.56;;;-1.26;57.79
70200;BME280;57587;55.688;37.600;2022-12-18T09:05:01;99273.84;;;-1.33;57.86
70200;BME280;57587;55.688;37.600;2022-12-18T09:07:28;99269.38;;;-1.20;58.24
70200;BME280;57587;55.688;37.600;2022-12-18T09:09:56;99278.56;;;-1.14;58.28
70200;BME280;57587;55.688;37.600;2022-12-18T09:12:23;99287.75;;;-1.09;57.89
70200;BME280;57587;55.688;37.600;2022-12-18T09:14:50;99291.22;;;-1.08;57.72
70200;BME280;57587;55.688;37.600;2022-12-18T09:17:17;99305.66;;;-1.14;58.02
70200;BME280;57587;55.688;37.600;2022-12-18T09:19:44;99303.50;;;-1.09;58.54
70200;BME280;57587;55.688;37.600;2022-12-18T09:22:11;99317.34;;;-1.07;58.27
70200;BME280;57587;55.688;37.600;2022-12-18T09:24:38;99320.13;;;-1.08;58.58
70200;BME280;57587;55.688;37.600;2022-12-18T09:27:14;99324.72;;;-1.12;58.32
70200;BME280;57587;55.688;37.600;2022-12-18T09:35:38;99314.22;;;-1.12;58.83
70200;BME280;57587;55.688;37.600;2022-12-18T09:38:06;99343.16;;;-1.01;57.66
70200;BME280;57587;55.688;37.600;2022-12-18T09:40:36;99345.03;;;-1.03;57.95
70200;BME280;57587;55.688;37.600;2022-12-18T09:43:13;99350.53;;;-1.06;58.38
70200;BME280;57587;55.688;37.600;2022-12-18T09:45:44;99353.06;;;-1.04;58.40
70200;BME280;57587;55.688;37.600;2022-12-18T09:48:30;99355.56;;;-1.03;59.48
70200;BME280;57587;55.688;37.600;2022-12-18T09:51:05;99357.00;;;-0.99;58.76
70200;BME280;57587;55.688;37.600;2022-12-18T09:53:38;99360.34;;;-0.97;58.20
70200;BME280;57587;55.688;37.600;2022-12-18T09:56:12;99356.56;;;-0.93;59.41
70200;BME280;57587;55.688;37.600;2022-12-18T09:58:53;99356.56;;;-0.93;58.94
70200;BME280;57587;55.688;37.600;2022-12-18T10:01:23;99365.13;;;-0.90;58.58
70200;BME280;57587;55.688;37.600;2022-12-18T10:03:59;99366.81;;;-0.89;58.31
70200;BME280;57587;55.688;37.600;2022-12-18T10:06:32;99364.44;;;-0.93;58.43
70200;BME280;57587;55.688;37.600;2022-12-18T10:09:27;99371.63;;;-0.83;59.56
70200;BME280;57587;55.688;37.600;2022-12-18T10:12:34;99382.34;;;-0.86;59.11
70200;BME280;57587;55.688;37.600;2022-12-18T10:20:41;99374.66;;;-1.01;59.13
70200;BME280;57587;55.688;37.600;2022-12-18T10:28:26;99369.31;;;-0.88;59.40
70200;BME280;57587;55.688;37.600;2022-12-18T10:30:53;99368.50;;;-0.88;59.79
70200;BME280;57587;55.688;37.600;2022-12-18T10:33:23;99371.84;;;-0.86;60.53
70200;BME280;57587;55.688;37.600;2022-12-18T10:35:51;99375.63;;;-0.90;59.70
70200;BME280;57587;55.688;37.600;2022-12-18T10:51:08;99406.56;;;-0.94;59.21
70200;BME280;57587;55.688;37.600;2022-12-18T10:53:40;99404.06;;;-0.96;60.16
70200;BME280;57587;55.688;37.600;2022-12-18T10:56:12;99421.47;;;-0.95;60.42
70200;BME280;57587;55.688;37.600;2022-12-18T10:59:29;99432.09;;;-0.96;60.81
70200;BME280;57587;55.688;37.600;2022-12-18T11:01:56;99435.56;;;-0.96;60.69
70200;BME280;57587;55.688;37.600;2022-12-18T11:04:29;99439.88;;;-0.95;60.45
70200;BME280;57587;55.688;37.600;2022-12-18T11:07:08;99447.00;;;-0.97;60.43
70200;BME280;57587;55.688;37.600;2022-12-18T11:09:39;99447.75;;;-0.95;60.03
70200;BME280;57587;55.688;37.600;2022-12-18T11:14:48;99449.84;;;-1.00;60.47
70200;BME280;57587;55.688;37.600;2022-12-18T11:17:19;99452.69;;;-1.14;60.72
70200;BME280;57587;55.688;37.600;2022-12-18T11:20:24;99453.22;;;-1.22;60.35
70200;BME280;57587;55.688;37.600;2022-12-18T11:23:13;99452.16;;;-1.19;60.13
70200;BME280;57587;55.688;37.600;2022-12-18T11:25:51;99448.81;;;-1.21;60.26
70200;BME280;57587;55.688;37.600;2022-12-18T11:28:43;99453.97;;;-1.20;59.92
70200;BME280;57587;55.688;37.600;2022-12-18T11:40:53;99465.19;;;-1.42;60.26
70200;BME280;57587;55.688;37.600;2022-12-18T11:43:27;99467.16;;;-1.32;62.91
70200;BME280;57587;55.688;37.600;2022-12-18T11:46:19;99476.03;;;-1.22;63.59
70200;BME280;57587;55.688;37.600;2022-12-18T11:48:58;99477.69;;;-1.21;62.44
70200;BME280;57587;55.688;37.600;2022-12-18T11:51:35;99481.78;;;-1.17;61.50
70200;BME280;57587;55.688;37.600;2022-12-18T11:54:14;99491.09;;;-1.13;61.40
70200;BME280;57587;55.688;37.600;2022-12-18T11:57:09;99500.16;;;-1.17;61.77
70200;BME280;57587;55.688;37.600;2022-12-18T12:19:38;99557.19;;;-1.19;61.46
70200;BME280;57587;55.688;37.600;2022-12-18T12:25:19;99559.59;;;-1.16;60.62
70200;BME280;57587;55.688;37.600;2022-12-18T12:33:51;99581.81;;;-1.33;60.96
70200;BME280;57587;55.688;37.600;2022-12-18T12:39:03;99594.00;;;-1.45;60.95
70200;BME280;57587;55.688;37.600;2022-12-18T12:41:33;99584.22;;;-1.43;61.53
70200;BME280;57587;55.688;37.600;2022-12-18T12:44:34;99596.84;;;-1.48;61.38
70200;BME280;57587;55.688;37.600;2022-12-18T12:47:11;99602.50;;;-1.54;61.77
70200;BME280;57587;55.688;37.600;2022-12-18T12:49:42;99611.31;;;-1.55;61.76
70200;BME280;57587;55.688;37.600;2022-12-18T12:52:40;99612.38;;;-1.57;61.77
70200;BME280;57587;55.688;37.600;2022-12-18T12:55:21;99612.69;;;-1.62;62.01
70200;BME280;57587;55.688;37.600;2022-12-18T13:06:33;99642.28;;;-1.60;61.62
70200;BME280;57587;55.688;37.600;2022-12-18T13:09:10;99638.81;;;-1.60;62.66
70200;BME280;57587;55.688;37.600;2022-12-18T13:11:43;99645.31;;;-1.66;62.17
70200;BME280;57587;55.688;37.600;2022-12-18T13:14:33;99646.16;;;-1.66;61.98
70200;BME280;57587;55.688;37.600;2022-12-18T13:19:52;99664.44;;;-1.64;62.45
70200;BME280;57587;55.688;37.600;2022-12-18T13:22:44;99657.19;;;-1.73;61.65
70200;BME280;57587;55.688;37.600;2022-12-18T13:25:36;99677.09;;;-1.71;61.80
70200;BME280;57587;55.688;37.600;2022-12-18T13:28:11;99673.84;;;-1.74;62.42
70200;BME280;57587;55.688;37.600;2022-12-18T13:40:54;99698.94;;;-1.70;62.75
70200;BME280;57587;55.688;37.600;2022-12-18T13:43:23;99711.75;;;-1.66;62.11
70200;BME280;57587;55.688;37.600;2022-12-18T13:49:35;99739.38;;;-1.60;61.79
70200;BME280;57587;55.688;37.600;2022-12-18T13:52:34;99738.31;;;-1.57;61.71
70200;BME280;57587;55.688;37.600;2022-12-18T13:55:06;99736.19;;;-1.65;62.70
70200;BME280;57587;55.688;37.600;2022-12-18T13:57:37;99740.53;;;-1.64;61.82
70200;BME280;57587;55.688;37.600;2022-12-18T14:00:26;99742.81;;;-1.59;62.08
70200;BME280;57587;55.688;37.600;2022-12-18T14:02:56;99751.44;;;-1.57;62.22
70200;BME280;57587;55.688;37.600;2022-12-18T14:05:27;99743.78;;;-1.60;62.46
70200;BME280;57587;55.688;37.600;2022-12-18T14:07:59;99762.34;;;-1.64;62.81
70200;BME280;57587;55.688;37.600;2022-12-18T14:10:31;99755.94;;;-1.59;63.02
70200;BME280;57587;55.688;37.600;2022-12-18T14:13:23;99762.97;;;-1.60;63.19
70200;BME280;57587;55.688;37.600;2022-12-18T14:15:51;99774.44;;;-1.48;63.42
70200;BME280;57587;55.688;37.600;2022-12-18T14:18:38;99777.47;;;-1.54;62.82
70200;BME280;57587;55.688;37.600;2022-12-18T14:21:26;99785.97;;;-1.51;64.10
70200;BME280;57587;55.688;37.600;2022-12-18T14:24:14;99777.91;;;-1.48;62.91
70200;BME280;57587;55.688;37.600;2022-12-18T14:26:47;99794.38;;;-1.46;63.20
70200;BME280;57587;55.688;37.600;2022-12-18T14:29:27;99799.41;;;-1.43;62.34
70200;BME280;57587;55.688;37.600;2022-12-18T14:32:18;99805.63;;;-1.44;62.94
70200;BME280;57587;55.688;37.600;2022-12-18T14:34:50;99809.41;;;-1.48;62.77
70200;BME280;57587;55.688;37.600;2022-12-18T14:37:22;99817.69;;;-1.41;62.22
70200;BME280;57587;55.688;37.600;2022-12-18T14:40:03;99826.41;;;-1.41;61.75
70200;BME280;57587;55.688;37.600;2022-12-18T14:42:38;99837.66;;;-1.38;60.62
70200;BME280;57587;55.688;37.600;2022-12-18T14:53:37;99835.84;;;-1.51;60.09
70200;BME280;57587;55.688;37.600;2022-12-18T14:56:15;99847.91;;;-1.61;59.64
70200;BME280;57587;55.688;37.600;2022-12-18T14:58:50;99857.44;;;-1.60;60.10
70200;BME280;57587;55.688;37.600;2022-12-18T15:01:21;99872.16;;;-1.57;59.24
70200;BME280;57587;55.688;37.600;2022-12-18T15:03:51;99862.69;;;-1.60;59.62
70200;BME280;57587;55.688;37.600;2022-12-18T15:06:26;99869.97;;;-1.51;59.77
70200;BME280;57587;55.688;37.600;2022-12-18T15:08:54;99866.59;;;-1.53;59.14
70200;BME280;57587;55.688;37.600;2022-12-18T15:11:45;99873.69;;;-1.55;59.49
70200;BME280;57587;55.688;37.600;2022-12-18T15:16:56;99887.50;;;-1.51;59.83
70200;BME280;57587;55.688;37.600;2022-12-18T15:19:43;99879.19;;;-1.58;59.78
70200;BME280;57587;55.688;37.600;2022-12-18T15:22:24;99886.50;;;-1.63;59.01
70200;BME280;57587;55.688;37.600;2022-12-18T15:24:54;99895.03;;;-1.74;59.16
70200;BME280;57587;55.688;37.600;2022-12-18T15:27:30;99896.75;;;-1.87;58.93
70200;BME280;57587;55.688;37.600;2022-12-18T15:32:37;99900.59;;;-1.93;59.22
70200;BME280;57587;55.688;37.600;2022-12-18T15:37:41;99917.09;;;-1.91;59.21
70200;BME280;57587;55.688;37.600;2022-12-18T15:40:15;99915.44;;;-2.06;59.63
70200;BME280;57587;55.688;37.600;2022-12-18T15:42:44;99917.69;;;-2.14;60.13
70200;BME280;57587;55.688;37.600;2022-12-18T15:45:30;99917.50;;;-2.25;60.72
70200;BME280;57587;55.688;37.600;2022-12-18T15:47:58;99922.47;;;-2.21;60.22
70200;BME280;57587;55.688;37.600;2022-12-18T15:50:25;99922.19;;;-2.16;60.40
70200;BME280;57587;55.688;37.600;2022-12-18T15:52:54;99916.09;;;-2.17;59.66
70200;BME280;57587;55.688;37.600;2022-12-18T15:55:23;99924.81;;;-2.16;59.79
70200;BME280;57587;55.688;37.600;2022-12-18T15:58:10;99930.72;;;-2.13;60.57
70200;BME280;57587;55.688;37.600;2022-12-18T16:00:40;99938.28;;;-2.08;60.23
70200;BME280;57587;55.688;37.600;2022-12-18T16:03:08;99935.38;;;-2.03;60.26
70200;BME280;57587;55.688;37.600;2022-12-18T16:05:36;99938.47;;;-1.97;60.64
70200;BME280;57587;55.688;37.600;2022-12-18T16:08:03;99948.00;;;-1.96;59.77
70200;BME280;57587;55.688;37.600;2022-12-18T16:10:31;99959.53;;;-1.98;59.88
70200;BME280;57587;55.688;37.600;2022-12-18T16:12:58;99961.13;;;-1.96;59.62
70200;BME280;57587;55.688;37.600;2022-12-18T16:15:25;99976.84;;;-1.96;60.87
70200;BME280;57587;55.688;37.600;2022-12-18T16:17:52;99974.22;;;-1.96;59.90
70200;BME280;57587;55.688;37.600;2022-12-18T16:20:21;99981.91;;;-1.93;59.10
70200;BME280;57587;55.688;37.600;2022-12-18T16:22:49;99984.44;;;-1.91;58.79
70200;BME280;57587;55.688;37.600;2022-12-18T16:25:28;99993.53;;;-1.97;59.55
70200;BME280;57587;55.688;37.600;2022-12-18T16:27:58;99988.00;;;-2.06;58.08
70200;BME280;57587;55.688;37.600;2022-12-18T16:30:37;99993.69;;;-2.14;58.25
70200;BME280;57587;55.688;37.600;2022-12-18T16:33:05;100005.31;;;-2.18;58.29
70200;BME280;57587;55.688;37.600;2022-12-18T16:35:33;99999.25;;;-2.19;58.16
70200;BME280;57587;55.688;37.600;2022-12-18T16:38:05;99999.13;;;-2.17;58.13
70200;BME280;57587;55.688;37.600;2022-12-18T16:40:32;100006.72;;;-2.27;59.47
70200;BME280;57587;55.688;37.600;2022-12-18T16:42:59;100018.91;;;-2.26;60.24
70200;BME280;57587;55.688;37.600;2022-12-18T16:45:26;100027.31;;;-2.21;58.73
70200;BME280;57587;55.688;37.600;2022-12-18T16:47:59;100024.97;;;-2.25;59.26
70200;BME280;57587;55.688;37.600;2022-12-18T16:50:27;100026.88;;;-2.13;59.33
70200;BME280;57587;55.688;37.600;2022-12-18T16:52:54;100033.56;;;-2.23;58.10
70200;BME280;57587;55.688;37.600;2022-12-18T16:55:21;100024.81;;;-2.22;58.25
70200;BME280;57587;55.688;37.600;2022-12-18T16:57:48;100036.56;;;-2.29;57.13
70200;BME280;57587;55.688;37.600;2022-12-18T17:00:15;100047.03;;;-2.44;57.93
70200;BME280;57587;55.688;37.600;2022-12-18T17:02:42;100047.38;;;-2.50;56.96
70200;BME280;57587;55.688;37.600;2022-12-18T17:05:10;100058.16;;;-2.70;56.56
70200;BME280;57587;55.688;37.600;2022-12-18T17:07:37;100062.66;;;-2.72;57.64
70200;BME280;57587;55.688;37.600;2022-12-18T17:10:04;100060.91;;;-2.88;56.75
70200;BME280;57587;55.688;37.600;2022-12-18T17:12:32;100073.31;;;-2.91;56.15
70200;BME280;57587;55.688;37.600;2022-12-18T17:14:59;100079.75;;;-2.97;56.89
70200;BME280;57587;55.688;37.600;2022-12-18T17:17:26;100082.72;;;-3.03;57.41
70200;BME280;57587;55.688;37.600;2022-12-18T17:19:53;100074.88;;;-3.03;56.14